sensor_id;sensor_type;location;lat;lon;timestamp;pressure;altitude;pressure_sealevel;temperature;humidity
61318;BME280;47201;40.428;-8.436;2023-08-06T00:01:03;100708.88;;;18.09;100.00
61318;BME280;47201;40.428;-8.436;2023-08-06T00:03:04;100713.34;;;18.07;100.00
61318;BME280;47201;40.428;-8.436;2023-08-06T00:05:05;100704.38;;;18.13;100.00
61318;BME280;47201;40.428;-8.436;2023-08-06T00:07:05;100698.13;;;18.14;100.00
61318;BME280;47201;40.428;-8.436;2023-08-06T00:09:06;100704.19;;;18.17;100.00
61318;BME280;47201;40.428;-8.436;2023-08-06T00:11:06;100708.63;;;18.17;100.00
61318;BME280;47201;40.428;-8.436;2023-08-06T00:13:07;100695.47;;;18.15;100.00
61318;BME280;47201;40.428;-8.436;2023-08-06T00:15:07;100699.16;;;18.10;100.00
61318;BME280;47201;40.428;-8.436;2023-08-06T00:17:08;100692.75;;;18.17;100.00
61318;BME280;47201;40.428;-8.436;2023-08-06T00:19:09;100688.31;;;18.17;100.00
61318;BME280;47201;40.428;-8.436;2023-08-06T00:21:09;100702.66;;;18.10;100.00
61318;BME280;47201;40.428;-8.436;2023-08-06T00:23:12;100695.06;;;17.99;100.00
61318;BME280;47201;40.428;-8.436;2023-08-06T00:25:12;100690.03;;;17.91;100.00
61318;BME280;47201;40.428;-8.436;2023-08-06T00:27:13;100691.22;;;17.81;100.00
61318;BME280;47201;40.428;-8.436;2023-08-06T00:29:13;100690.66;;;17.71;100.00
61318;BME280;47201;40.428;-8.436;2023-08-06T00:31:14;100698.78;;;17.65;100.00
61318;BME280;47201;40.428;-8.436;2023-08-06T00:33:15;100699.75;;;17.63;100.00
61318;BME280;47201;40.428;-8.436;2023-08-06T00:35:16;100688.53;;;17.54;100.00
61318;BME280;47201;40.428;-8.436;2023-08-06T00:37:16;100685.00;;;17.55;100.00
61318;BME280;47201;40.428;-8.436;2023-08-06T00:39:17;100690.22;;;17.57;100.00
61318;BME280;47201;40.428;-8.436;2023-08-06T00:41:17;100681.47;;;17.55;100.00
61318;BME280;47201;40.428;-8.436;2023-08-06T00:43:18;100680.81;;;17.48;100.00
61318;BME280;47201;40.428;-8.436;2023-08-06T00:45:18;100688.09;;;17.40;100.00
61318;BME280;47201;40.428;-8.436;2023-08-06T00:47:19;100681.84;;;17.42;100.00
61318;BME280;47201;40.428;-8.436;2023-08-06T00:49:19;100684.56;;;17.39;100.00
61318;BME280;47201;40.428;-8.436;2023-08-06T00:51:21;100687.38;;;17.35;100.00
61318;BME280;47201;40.428;-8.436;2023-08-06T00:53:22;100691.91;;;17.31;100.00
61318;BME280;47201;40.428;-8.436;2023-08-06T00:55:23;100686.75;;;17.26;100.00
61318;BME280;47201;40.428;-8.436;2023-08-06T00:57:24;100684.19;;;17.23;100.00
61318;BME280;47201;40.428;-8.436;2023-08-06T00:59:25;100689.53;;;17.20;100.00
61318;BME280;47201;40.428;-8.436;2023-08-06T01:01:25;100683.47;;;17.17;100.00
61318;BME280;47201;40.428;-8.436;2023-08-06T01:03:26;100678.31;;;17.13;100.00
61318;BME280;47201;40.428;-8.436;2023-08-06T01:05:26;100688.00;;;17.13;100.00
61318;BME280;47201;40.428;-8.436;2023-08-06T01:09:47;100686.75;;;17.26;100.00
61318;BME280;47201;40.428;-8.436;2023-08-06T01:12:34;100685.22;;;17.18;100.00
61318;BME280;47201;40.428;-8.436;2023-08-06T01:16:15;100687.56;;;16.97;100.00
61318;BME280;47201;40.428;-8.436;2023-08-06T01:18:17;100681.66;;;16.87;100.00
61318;BME280;47201;40.428;-8.436;2023-08-06T01:20:18;100682.81;;;16.77;100.00
61318;BME280;47201;40.428;-8.436;2023-08-06T01:22:18;100681.25;;;16.70;100.00
61318;BME280;47201;40.428;-8.436;2023-08-06T01:24:19;100674.41;;;16.64;100.00
61318;BME280;47201;40.428;-8.436;2023-08-06T01:26:27;100676.38;;;16.56;100.00
61318;BME280;47201;40.428;-8.436;2023-08-06T01:28:35;100678.41;;;16.44;100.00
61318;BME280;47201;40.428;-8.436;2023-08-06T01:30:41;100668.97;;;16.36;100.00
61318;BME280;47201;40.428;-8.436;2023-08-06T01:32:46;100670.88;;;16.30;100.00
61318;BME280;47201;40.428;-8.436;2023-08-06T01:34:47;100667.47;;;16.25;100.00
61318;BME280;47201;40.428;-8.436;2023-08-06T01:36:51;100675.50;;;16.22;100.00
61318;BME280;47201;40.428;-8.436;2023-08-06T01:38:52;100677.34;;;16.17;100.00
61318;BME280;47201;40.428;-8.436;2023-08-06T01:40:53;100665.13;;;16.14;100.00
61318;BME280;47201;40.428;-8.436;2023-08-06T01:42:56;100662.59;;;16.10;100.00
61318;BME280;47201;40.428;-8.436;2023-08-06T01:44:57;100659.94;;;16.10;100.00
61318;BME280;47201;40.428;-8.436;2023-08-06T01:46:57;100657.31;;;16.11;100.00
61318;BME280;47201;40.428;-8.436;2023-08-06T01:48:58;100664.16;;;16.17;100.00
61318;BME280;47201;40.428;-8.436;2023-08-06T01:50:58;100656.25;;;16.18;100.00
61318;BME280;47201;40.428;-8.436;2023-08-06T01:52:59;100657.84;;;16.24;100.00
61318;BME280;47201;40.428;-8.436;2023-08-06T01:55:01;100654.28;;;16.27;100.00
61318;BME280;47201;40.428;-8.436;2023-08-06T01:57:01;100653.38;;;16.26;100.00
61318;BME280;47201;40.428;-8.436;2023-08-06T01:59:01;100646.38;;;16.25;100.00
61318;BME280;47201;40.428;-8.436;2023-08-06T02:01:02;100649.00;;;16.27;100.00
61318;BME280;47201;40.428;-8.436;2023-08-06T02:03:02;100647.94;;;16.32;100.00
61318;BME280;47201;40.428;-8.436;2023-08-06T02:05:03;100655.00;;;16.32;100.00
61318;BME280;47201;40.428;-8.436;2023-08-06T02:07:04;100649.69;;;16.33;100.00
61318;BME280;47201;40.428;-8.436;2023-08-06T02:09:04;100654.00;;;16.38;100.00
61318;BME280;47201;40.428;-8.436;2023-08-06T02:11:05;100652.13;;;16.41;100.00
61318;BME280;47201;40.428;-8.436;2023-08-06T02:13:05;100649.44;;;16.43;100.00
61318;BME280;47201;40.428;-8.436;2023-08-06T02:15:06;100651.97;;;16.47;100.00
61318;BME280;47201;40.428;-8.436;2023-08-06T02:17:06;100651.00;;;16.50;100.00
61318;BME280;47201;40.428;-8.436;2023-08-06T02:19:07;100655.16;;;16.59;100.00
61318;BME280;47201;40.428;-8.436;2023-08-06T02:21:07;100646.94;;;16.71;100.00
61318;BME280;47201;40.428;-8.436;2023-08-06T02:23:08;100650.53;;;16.67;100.00
61318;BME280;47201;40.428;-8.436;2023-08-06T02:25:09;100642.50;;;16.72;100.00
61318;BME280;47201;40.428;-8.436;2023-08-06T02:27:09;100644.28;;;16.71;100.00
61318;BME280;47201;40.428;-8.436;2023-08-06T02:29:10;100637.00;;;16.79;100.00
61318;BME280;47201;40.428;-8.436;2023-08-06T02:31:10;100632.53;;;16.81;100.00
61318;BME280;47201;40.428;-8.436;2023-08-06T02:33:11;100632.47;;;16.83;100.00
61318;BME280;47201;40.428;-8.436;2023-08-06T02:35:11;100629.69;;;16.89;100.00
61318;BME280;47201;40.428;-8.436;2023-08-06T02:37:13;100626.31;;;16.84;100.00
61318;BME280;47201;40.428;-8.436;2023-08-06T02:39:13;100630.59;;;16.88;100.00
61318;BME280;47201;40.428;-8.436;2023-08-06T02:41:14;100625.16;;;16.94;100.00
61318;BME280;47201;40.428;-8.436;2023-08-06T02:43:14;100624.41;;;16.89;100.00
61318;BME280;47201;40.428;-8.436;2023-08-06T02:45:15;100622.09;;;16.77;100.00
61318;BME280;47201;40.428;-8.436;2023-08-06T02:47:15;100625.97;;;16.65;100.00
61318;BME280;47201;40.428;-8.436;2023-08-06T02:49:16;100624.50;;;16.55;100.00
61318;BME280;47201;40.428;-8.436;2023-08-06T02:51:17;100623.59;;;16.56;100.00
61318;BME280;47201;40.428;-8.436;2023-08-06T02:53:17;100615.69;;;16.54;100.00
61318;BME280;47201;40.428;-8.436;2023-08-06T02:55:19;100612.34;;;16.49;100.00
61318;BME280;47201;40.428;-8.436;2023-08-06T02:57:21;100612.50;;;16.43;100.00
61318;BME280;47201;40.428;-8.436;2023-08-06T02:59:25;100599.50;;;16.37;100.00
61318;BME280;47201;40.428;-8.436;2023-08-06T03:01:40;100606.66;;;16.31;100.00
61318;BME280;47201;40.428;-8.436;2023-08-06T03:03:49;100607.72;;;16.24;100.00
61318;BME280;47201;40.428;-8.436;2023-08-06T03:05:57;100608.06;;;16.12;100.00
61318;BME280;47201;40.428;-8.436;2023-08-06T03:08:14;100596.94;;;15.99;100.00
61318;BME280;47201;40.428;-8.436;2023-08-06T03:10:15;100604.00;;;15.98;100.00
61318;BME280;47201;40.428;-8.436;2023-08-06T03:12:17;100606.56;;;16.01;100.00
61318;BME280;47201;40.428;-8.436;2023-08-06T03:14:17;100603.78;;;16.06;100.00
61318;BME280;47201;40.428;-8.436;2023-08-06T03:16:19;100598.50;;;16.08;100.00
61318;BME280;47201;40.428;-8.436;2023-08-06T03:18:20;100600.06;;;16.15;100.00
61318;BME280;47201;40.428;-8.436;2023-08-06T03:20:21;100598.16;;;16.20;100.00
61318;BME280;47201;40.428;-8.436;2023-08-06T03:22:22;100595.97;;;16.36;100.00
61318;BME280;47201;40.428;-8.436;2023-08-06T03:24:22;100601.00;;;16.45;100.00
61318;BME280;47201;40.428;-8.436;2023-08-06T03:26:23;100600.03;;;16.48;100.00
61318;BME280;47201;40.428;-8.436;2023-08-06T03:28:23;100598.31;;;16.47;100.00
61318;BME280;47201;40.428;-8.436;2023-08-06T03:30:24;100593.22;;;16.41;100.00
61318;BME280;47201;40.428;-8.436;2023-08-06T03:32:27;100596.84;;;16.37;100.00
61318;BME280;47201;40.428;-8.436;2023-08-06T03:34:29;100593.16;;;16.42;100.00
61318;BME280;47201;40.428;-8.436;2023-08-06T03:36:30;100597.47;;;16.46;100.00
61318;BME280;47201;40.428;-8.436;2023-08-06T03:38:31;100592.97;;;16.50;100.00
61318;BME280;47201;40.428;-8.436;2023-08-06T03:40:34;100596.56;;;16.46;100.00
61318;BME280;47201;40.428;-8.436;2023-08-06T03:42:35;100591.34;;;16.44;100.00
61318;BME280;47201;40.428;-8.436;2023-08-06T03:44:36;100584.13;;;16.51;100.00
61318;BME280;47201;40.428;-8.436;2023-08-06T03:46:37;100583.06;;;16.58;100.00
61318;BME280;47201;40.428;-8.436;2023-08-06T03:48:40;100589.97;;;16.62;100.00
61318;BME280;47201;40.428;-8.436;2023-08-06T03:50:41;100593.69;;;16.55;100.00
61318;BME280;47201;40.428;-8.436;2023-08-06T03:52:45;100602.69;;;16.48;100.00
61318;BME280;47201;40.428;-8.436;2023-08-06T03:54:45;100593.31;;;16.38;100.00
61318;BME280;47201;40.428;-8.436;2023-08-06T03:56:46;100589.31;;;16.23;100.00
61318;BME280;47201;40.428;-8.436;2023-08-06T03:58:46;100586.09;;;16.11;100.00
61318;BME280;47201;40.428;-8.436;2023-08-06T04:00:47;100581.91;;;16.02;100.00
61318;BME280;47201;40.428;-8.436;2023-08-06T04:02:48;100580.41;;;15.94;100.00
61318;BME280;47201;40.428;-8.436;2023-08-06T04:04:49;100581.47;;;15.86;100.00
61318;BME280;47201;40.428;-8.436;2023-08-06T04:06:50;100590.34;;;15.81;100.00
61318;BME280;47201;40.428;-8.436;2023-08-06T04:08:50;100584.41;;;15.73;100.00
61318;BME280;47201;40.428;-8.436;2023-08-06T04:10:51;100588.06;;;15.67;100.00
61318;BME280;47201;40.428;-8.436;2023-08-06T04:12:52;100583.72;;;15.64;100.00
61318;BME280;47201;40.428;-8.436;2023-08-06T04:14:53;100578.59;;;15.60;100.00
61318;BME280;47201;40.428;-8.436;2023-08-06T04:16:53;100585.72;;;15.56;100.00
61318;BME280;47201;40.428;-8.436;2023-08-06T04:18:54;100582.28;;;15.51;100.00
61318;BME280;47201;40.428;-8.436;2023-08-06T04:20:55;100585.81;;;15.51;100.00
61318;BME280;47201;40.428;-8.436;2023-08-06T04:22:57;100586.72;;;15.50;100.00
61318;BME280;47201;40.428;-8.436;2023-08-06T04:24:58;100586.72;;;15.49;100.00
61318;BME280;47201;40.428;-8.436;2023-08-06T04:26:58;100580.66;;;15.47;100.00
61318;BME280;47201;40.428;-8.436;2023-08-06T04:28:59;100579.81;;;15.45;100.00
61318;BME280;47201;40.428;-8.436;2023-08-06T04:31:01;100586.88;;;15.43;100.00
61318;BME280;47201;40.428;-8.436;2023-08-06T04:33:04;100588.56;;;15.47;100.00
61318;BME280;47201;40.428;-8.436;2023-08-06T04:35:07;100587.59;;;15.49;100.00
61318;BME280;47201;40.428;-8.436;2023-08-06T04:37:09;100591.78;;;15.58;100.00
61318;BME280;47201;40.428;-8.436;2023-08-06T04:39:09;100591.63;;;15.64;100.00
61318;BME280;47201;40.428;-8.436;2023-08-06T04:41:10;100594.94;;;15.73;100.00
61318;BME280;47201;40.428;-8.436;2023-08-06T04:43:10;100593.88;;;15.81;100.00
61318;BME280;47201;40.428;-8.436;2023-08-06T04:45:11;100589.44;;;15.82;100.00
61318;BME280;47201;40.428;-8.436;2023-08-06T04:47:11;100593.94;;;15.78;100.00
61318;BME280;47201;40.428;-8.436;2023-08-06T04:49:12;100595.03;;;15.69;100.00
61318;BME280;47201;40.428;-8.436;2023-08-06T04:51:12;100591.50;;;15.70;100.00
61318;BME280;47201;40.428;-8.436;2023-08-06T04:53:13;100586.91;;;15.77;100.00
61318;BME280;47201;40.428;-8.436;2023-08-06T04:55:13;100591.25;;;15.80;100.00
61318;BME280;47201;40.428;-8.436;2023-08-06T04:57:14;100604.41;;;15.81;100.00
61318;BME280;47201;40.428;-8.436;2023-08-06T04:59:14;100597.41;;;15.79;100.00
61318;BME280;47201;40.428;-8.436;2023-08-06T05:01:15;100601.06;;;15.75;100.00
61318;BME280;47201;40.428;-8.436;2023-08-06T05:03:15;100601.31;;;15.64;100.00
61318;BME280;47201;40.428;-8.436;2023-08-06T05:05:16;100600.69;;;15.54;100.00
61318;BME280;47201;40.428;-8.436;2023-08-06T05:07:16;100603.56;;;15.43;100.00
61318;BME280;47201;40.428;-8.436;2023-08-06T05:09:17;100603.81;;;15.32;100.00
61318;BME280;47201;40.428;-8.436;2023-08-06T05:11:17;100607.59;;;15.20;100.00
61318;BME280;47201;40.428;-8.436;2023-08-06T05:13:18;100606.66;;;15.23;100.00
61318;BME280;47201;40.428;-8.436;2023-08-06T05:15:18;100605.59;;;15.30;100.00
61318;BME280;47201;40.428;-8.436;2023-08-06T05:17:19;100601.28;;;15.28;100.00
61318;BME280;47201;40.428;-8.436;2023-08-06T05:19:19;100600.41;;;15.27;100.00
61318;BME280;47201;40.428;-8.436;2023-08-06T05:21:20;100606.31;;;15.38;100.00
61318;BME280;47201;40.428;-8.436;2023-08-06T05:23:20;100602.63;;;15.46;100.00
61318;BME280;47201;40.428;-8.436;2023-08-06T05:25:20;100598.19;;;15.48;100.00
61318;BME280;47201;40.428;-8.436;2023-08-06T05:27:21;100599.56;;;15.63;100.00
61318;BME280;47201;40.428;-8.436;2023-08-06T05:29:21;100603.84;;;15.68;100.00
61318;BME280;47201;40.428;-8.436;2023-08-06T05:31:22;100599.06;;;15.86;100.00
61318;BME280;47201;40.428;-8.436;2023-08-06T05:33:22;100598.91;;;15.92;100.00
61318;BME280;47201;40.428;-8.436;2023-08-06T05:35:23;100602.06;;;16.05;100.00
61318;BME280;47201;40.428;-8.436;2023-08-06T05:37:23;100601.94;;;16.10;100.00
61318;BME280;47201;40.428;-8.436;2023-08-06T05:39:24;100597.66;;;16.06;100.00
61318;BME280;47201;40.428;-8.436;2023-08-06T05:41:25;100599.63;;;15.97;100.00
61318;BME280;47201;40.428;-8.436;2023-08-06T05:43:26;100601.59;;;15.89;100.00
61318;BME280;47201;40.428;-8.436;2023-08-06T05:45:26;100603.50;;;15.84;100.00
61318;BME280;47201;40.428;-8.436;2023-08-06T05:47:27;100603.34;;;15.90;100.00
61318;BME280;47201;40.428;-8.436;2023-08-06T05:49:27;100608.59;;;15.90;100.00
61318;BME280;47201;40.428;-8.436;2023-08-06T05:51:28;100606.81;;;15.91;100.00
61318;BME280;47201;40.428;-8.436;2023-08-06T05:53:28;100598.91;;;15.91;100.00
61318;BME280;47201;40.428;-8.436;2023-08-06T05:55:29;100603.41;;;15.87;100.00
61318;BME280;47201;40.428;-8.436;2023-08-06T05:57:31;100605.13;;;15.88;100.00
61318;BME280;47201;40.428;-8.436;2023-08-06T05:59:31;100602.34;;;15.94;100.00
61318;BME280;47201;40.428;-8.436;2023-08-06T06:01:32;100602.22;;;16.00;100.00
61318;BME280;47201;40.428;-8.436;2023-08-06T06:03:32;100604.69;;;16.05;100.00
61318;BME280;47201;40.428;-8.436;2023-08-06T06:05:33;100615.13;;;16.10;100.00
61318;BME280;47201;40.428;-8.436;2023-08-06T06:07:33;100618.44;;;16.18;100.00
61318;BME280;47201;40.428;-8.436;2023-08-06T06:09:34;100626.28;;;16.21;100.00
61318;BME280;47201;40.428;-8.436;2023-08-06T06:11:34;100629.59;;;16.28;100.00
61318;BME280;47201;40.428;-8.436;2023-08-06T06:13:35;100622.47;;;16.31;100.00
61318;BME280;47201;40.428;-8.436;2023-08-06T06:15:35;100622.44;;;16.33;100.00
61318;BME280;47201;40.428;-8.436;2023-08-06T06:17:36;100618.81;;;16.37;100.00
61318;BME280;47201;40.428;-8.436;2023-08-06T06:19:37;100624.81;;;16.44;100.00
61318;BME280;47201;40.428;-8.436;2023-08-06T06:21:37;100633.38;;;16.52;100.00
61318;BME280;47201;40.428;-8.436;2023-08-06T06:23:38;100635.00;;;16.56;100.00
61318;BME280;47201;40.428;-8.436;2023-08-06T06:25:42;100633.94;;;16.63;100.00
61318;BME280;47201;40.428;-8.436;2023-08-06T06:27:43;100632.78;;;16.72;100.00
61318;BME280;47201;40.428;-8.436;2023-08-06T06:29:44;100632.41;;;16.86;100.00
61318;BME280;47201;40.428;-8.436;2023-08-06T06:31:44;100634.97;;;16.89;100.00
61318;BME280;47201;40.428;-8.436;2023-08-06T06:33:45;100635.94;;;16.85;100.00
61318;BME280;47201;40.428;-8.436;2023-08-06T06:35:45;100641.22;;;16.85;100.00
61318;BME280;47201;40.428;-8.436;2023-08-06T06:37:46;100641.34;;;16.82;100.00
61318;BME280;47201;40.428;-8.436;2023-08-06T06:39:46;100646.75;;;16.77;100.00
61318;BME280;47201;40.428;-8.436;2023-08-06T06:41:47;100633.13;;;16.91;100.00
61318;BME280;47201;40.428;-8.436;2023-08-06T06:43:57;100638.13;;;17.02;100.00
61318;BME280;47201;40.428;-8.436;2023-08-06T06:45:58;100628.91;;;17.17;100.00
61318;BME280;47201;40.428;-8.436;2023-08-06T06:47:59;100636.34;;;17.33;100.00
61318;BME280;47201;40.428;-8.436;2023-08-06T06:50:00;100632.22;;;17.52;100.00
61318;BME280;47201;40.428;-8.436;2023-08-06T06:52:00;100636.00;;;17.72;100.00
61318;BME280;47201;40.428;-8.436;2023-08-06T06:54:01;100624.69;;;17.95;100.00
61318;BME280;47201;40.428;-8.436;2023-08-06T06:56:02;100632.38;;;18.28;100.00
61318;BME280;47201;40.428;-8.436;2023-08-06T06:58:02;100631.94;;;18.66;100.00
61318;BME280;47201;40.428;-8.436;2023-08-06T07:00:03;100634.16;;;19.02;100.00
61318;BME280;47201;40.428;-8.436;2023-08-06T07:02:04;100636.22;;;19.41;100.00
61318;BME280;47201;40.428;-8.436;2023-08-06T07:04:04;100638.28;;;19.77;100.00
61318;BME280;47201;40.428;-8.436;2023-08-06T07:06:05;100639.97;;;20.23;98.39
61318;BME280;47201;40.428;-8.436;2023-08-06T07:08:06;100644.59;;;20.80;96.17
61318;BME280;47201;40.428;-8.436;2023-08-06T07:10:06;100644.19;;;21.27;92.31
61318;BME280;47201;40.428;-8.436;2023-08-06T07:12:07;100649.53;;;22.00;86.73
61318;BME280;47201;40.428;-8.436;2023-08-06T07:14:08;100645.72;;;22.75;83.50
61318;BME280;47201;40.428;-8.436;2023-08-06T07:16:08;100650.69;;;23.95;78.47
61318;BME280;47201;40.428;-8.436;2023-08-06T07:18:09;100660.06;;;25.33;73.44
61318;BME280;47201;40.428;-8.436;2023-08-06T07:20:09;100659.78;;;26.72;70.00
61318;BME280;47201;40.428;-8.436;2023-08-06T07:22:10;100661.06;;;28.15;68.76
61318;BME280;47201;40.428;-8.436;2023-08-06T07:24:11;100665.97;;;29.02;69.87
61318;BME280;47201;40.428;-8.436;2023-08-06T07:26:11;100673.63;;;29.85;71.56
61318;BME280;47201;40.428;-8.436;2023-08-06T07:28:12;100680.06;;;30.47;73.08
61318;BME280;47201;40.428;-8.436;2023-08-06T07:30:13;100674.56;;;31.52;73.60
61318;BME280;47201;40.428;-8.436;2023-08-06T07:32:14;100667.47;;;32.00;75.70
61318;BME280;47201;40.428;-8.436;2023-08-06T07:34:14;100672.47;;;32.81;76.05
61318;BME280;47201;40.428;-8.436;2023-08-06T07:36:14;100671.34;;;33.40;76.55
61318;BME280;47201;40.428;-8.436;2023-08-06T07:38:15;100668.91;;;34.45;77.77
61318;BME280;47201;40.428;-8.436;2023-08-06T07:40:16;100669.28;;;35.19;77.33
61318;BME280;47201;40.428;-8.436;2023-08-06T07:42:16;100667.06;;;34.80;78.89
61318;BME280;47201;40.428;-8.436;2023-08-06T07:44:17;100667.63;;;35.35;78.38
61318;BME280;47201;40.428;-8.436;2023-08-06T07:46:17;100667.06;;;35.74;78.73
61318;BME280;47201;40.428;-8.436;2023-08-06T07:48:18;100666.88;;;35.84;79.09
61318;BME280;47201;40.428;-8.436;2023-08-06T07:50:18;100672.78;;;35.54;79.35
61318;BME280;47201;40.428;-8.436;2023-08-06T07:52:19;100671.13;;;36.52;78.92
61318;BME280;47201;40.428;-8.436;2023-08-06T07:54:19;100666.56;;;36.45;78.97
61318;BME280;47201;40.428;-8.436;2023-08-06T07:56:20;100666.03;;;36.25;79.15
61318;BME280;47201;40.428;-8.436;2023-08-06T07:58:23;100669.22;;;35.03;81.15
61318;BME280;47201;40.428;-8.436;2023-08-06T08:00:23;100665.81;;;35.44;80.48
61318;BME280;47201;40.428;-8.436;2023-08-06T08:02:24;100669.44;;;35.85;80.00
61318;BME280;47201;40.428;-8.436;2023-08-06T08:04:25;100675.06;;;36.17;79.72
61318;BME280;47201;40.428;-8.436;2023-08-06T08:06:26;100666.03;;;36.97;79.07
61318;BME280;47201;40.428;-8.436;2023-08-06T08:08:26;100668.28;;;37.57;78.42
61318;BME280;47201;40.428;-8.436;2023-08-06T08:10:26;100661.16;;;38.02;78.52
61318;BME280;47201;40.428;-8.436;2023-08-06T08:12:27;100661.50;;;38.37;78.11
61318;BME280;47201;40.428;-8.436;2023-08-06T08:14:27;100663.78;;;38.49;77.83
61318;BME280;47201;40.428;-8.436;2023-08-06T08:16:29;100662.84;;;38.42;78.53
61318;BME280;47201;40.428;-8.436;2023-08-06T08:18:29;100656.50;;;39.01;77.56
61318;BME280;47201;40.428;-8.436;2023-08-06T08:20:31;100662.06;;;38.93;77.68
61318;BME280;47201;40.428;-8.436;2023-08-06T08:22:33;100658.63;;;39.79;77.55
61318;BME280;47201;40.428;-8.436;2023-08-06T08:24:33;100654.72;;;39.88;77.82
61318;BME280;47201;40.428;-8.436;2023-08-06T08:26:34;100657.28;;;40.82;76.62
61318;BME280;47201;40.428;-8.436;2023-08-06T08:28:34;100652.47;;;40.90;76.91
61318;BME280;47201;40.428;-8.436;2023-08-06T08:30:35;100646.66;;;41.07;76.41
61318;BME280;47201;40.428;-8.436;2023-08-06T08:32:35;100655.22;;;41.52;76.98
61318;BME280;47201;40.428;-8.436;2023-08-06T08:34:36;100654.63;;;41.77;76.11
61318;BME280;47201;40.428;-8.436;2023-08-06T08:36:36;100650.44;;;41.06;76.84
61318;BME280;47201;40.428;-8.436;2023-08-06T08:38:37;100641.84;;;40.39;77.88
61318;BME280;47201;40.428;-8.436;2023-08-06T08:40:39;100641.84;;;39.39;78.86
61318;BME280;47201;40.428;-8.436;2023-08-06T08:42:42;100642.25;;;39.21;79.19
61318;BME280;47201;40.428;-8.436;2023-08-06T08:44:42;100646.34;;;40.53;78.01
61318;BME280;47201;40.428;-8.436;2023-08-06T08:46:43;100652.59;;;40.69;77.41
61318;BME280;47201;40.428;-8.436;2023-08-06T08:48:44;100655.31;;;41.11;77.26
61318;BME280;47201;40.428;-8.436;2023-08-06T08:50:45;100647.69;;;39.79;78.11
61318;BME280;47201;40.428;-8.436;2023-08-06T08:52:46;100651.72;;;39.40;78.04
61318;BME280;47201;40.428;-8.436;2023-08-06T08:54:49;100651.16;;;39.88;77.79
61318;BME280;47201;40.428;-8.436;2023-08-06T08:56:52;100661.84;;;40.68;77.13
61318;BME280;47201;40.428;-8.436;2023-08-06T08:58:53;100660.63;;;41.19;76.73
61318;BME280;47201;40.428;-8.436;2023-08-06T09:00:55;100657.25;;;41.30;76.67
61318;BME280;47201;40.428;-8.436;2023-08-06T09:02:56;100655.81;;;40.86;76.71
61318;BME280;47201;40.428;-8.436;2023-08-06T09:04:58;100658.88;;;40.63;77.13
61318;BME280;47201;40.428;-8.436;2023-08-06T09:07:02;100645.41;;;40.33;77.82
61318;BME280;47201;40.428;-8.436;2023-08-06T09:09:10;100650.41;;;39.72;78.47
61318;BME280;47201;40.428;-8.436;2023-08-06T09:11:12;100647.44;;;39.30;79.40
61318;BME280;47201;40.428;-8.436;2023-08-06T09:13:12;100654.19;;;38.83;79.67
61318;BME280;47201;40.428;-8.436;2023-08-06T09:15:14;100651.53;;;39.85;78.94
61318;BME280;47201;40.428;-8.436;2023-08-06T09:17:14;100659.75;;;40.35;78.06
61318;BME280;47201;40.428;-8.436;2023-08-06T09:19:15;100655.97;;;40.71;77.82
61318;BME280;47201;40.428;-8.436;2023-08-06T09:21:18;100651.63;;;40.97;77.81
61318;BME280;47201;40.428;-8.436;2023-08-06T09:23:19;100653.91;;;40.80;78.08
61318;BME280;47201;40.428;-8.436;2023-08-06T09:25:21;100653.47;;;41.25;77.29
61318;BME280;47201;40.428;-8.436;2023-08-06T09:27:22;100656.69;;;41.48;76.40
61318;BME280;47201;40.428;-8.436;2023-08-06T09:29:22;100654.75;;;40.80;76.86
61318;BME280;47201;40.428;-8.436;2023-08-06T09:31:23;100652.78;;;39.60;78.13
61318;BME280;47201;40.428;-8.436;2023-08-06T09:33:23;100655.63;;;40.17;77.54
61318;BME280;47201;40.428;-8.436;2023-08-06T09:35:24;100656.22;;;41.38;76.61
61318;BME280;47201;40.428;-8.436;2023-08-06T09:37:25;100655.69;;;42.10;75.81
61318;BME280;47201;40.428;-8.436;2023-08-06T09:39:29;100652.88;;;41.49;76.10
61318;BME280;47201;40.428;-8.436;2023-08-06T09:41:30;100650.84;;;41.92;76.42
61318;BME280;47201;40.428;-8.436;2023-08-06T09:43:30;100648.16;;;43.30;74.89
61318;BME280;47201;40.428;-8.436;2023-08-06T09:45:31;100653.88;;;43.85;74.09
61318;BME280;47201;40.428;-8.436;2023-08-06T09:47:33;100649.75;;;43.44;74.09
61318;BME280;47201;40.428;-8.436;2023-08-06T09:51:34;100647.81;;;44.64;73.86
61318;BME280;47201;40.428;-8.436;2023-08-06T09:53:35;100652.63;;;45.37;73.33
61318;BME280;47201;40.428;-8.436;2023-08-06T09:55:37;100655.00;;;45.33;73.48
61318;BME280;47201;40.428;-8.436;2023-08-06T09:57:39;100648.56;;;45.09;73.53
61318;BME280;47201;40.428;-8.436;2023-08-06T09:59:39;100652.34;;;45.69;73.49
61318;BME280;47201;40.428;-8.436;2023-08-06T10:01:41;100642.97;;;45.58;73.02
61318;BME280;47201;40.428;-8.436;2023-08-06T10:03:42;100649.19;;;44.92;73.70
61318;BME280;47201;40.428;-8.436;2023-08-06T10:05:42;100637.28;;;44.80;73.51
61318;BME280;47201;40.428;-8.436;2023-08-06T10:07:44;100646.50;;;44.30;73.47
61318;BME280;47201;40.428;-8.436;2023-08-06T10:09:46;100634.66;;;44.48;74.50
61318;BME280;47201;40.428;-8.436;2023-08-06T10:11:49;100641.78;;;44.37;74.45
61318;BME280;47201;40.428;-8.436;2023-08-06T10:13:50;100643.28;;;45.38;73.85
61318;BME280;47201;40.428;-8.436;2023-08-06T10:15:52;100645.47;;;46.02;72.74
61318;BME280;47201;40.428;-8.436;2023-08-06T10:17:54;100642.78;;;45.83;72.58
61318;BME280;47201;40.428;-8.436;2023-08-06T10:19:56;100649.00;;;45.78;73.02
61318;BME280;47201;40.428;-8.436;2023-08-06T10:24:12;100652.84;;;46.61;72.27
61318;BME280;47201;40.428;-8.436;2023-08-06T10:26:16;100641.16;;;46.70;72.28
61318;BME280;47201;40.428;-8.436;2023-08-06T10:28:16;100638.47;;;45.87;72.66